sensor_id;sensor_type;location;lat;lon;timestamp;pressure;altitude;pressure_sealevel;temperature;humidity
13765;BME280;6953;48.810;9.204;2023-04-25T00:01:11;98187.00;;;11.59;79.67
13765;BME280;6953;48.810;9.204;2023-04-25T00:03:38;98145.44;;;11.51;79.83
13765;BME280;6953;48.810;9.204;2023-04-25T00:06:04;98065.63;;;11.01;80.08
13765;BME280;6953;48.810;9.204;2023-04-25T00:08:30;98145.06;;;11.43;80.38
13765;BME280;6953;48.810;9.204;2023-04-25T00:10:56;98148.88;;;11.52;80.86
13765;BME280;6953;48.810;9.204;2023-04-25T00:13:22;98158.75;;;11.48;80.63
13765;BME280;6953;48.810;9.204;2023-04-25T00:15:47;97857.94;;;9.75;80.62
13765;BME280;6953;48.810;9.204;2023-04-25T00:18:14;97844.75;;;9.63;80.93
13765;BME280;6953;48.810;9.204;2023-04-25T00:20:39;97859.13;;;9.70;80.80
13765;BME280;6953;48.810;9.204;2023-04-25T00:23:05;98008.38;;;10.67;80.75
13765;BME280;6953;48.810;9.204;2023-04-25T00:25:31;98060.13;;;10.92;80.65
13765;BME280;6953;48.810;9.204;2023-04-25T00:27:56;97890.09;;;9.91;80.70
13765;BME280;6953;48.810;9.204;2023-04-25T00:30:21;98166.69;;;11.35;80.70
13765;BME280;6953;48.810;9.204;2023-04-25T00:32:47;97971.91;;;10.36;80.05
13765;BME280;6953;48.810;9.204;2023-04-25T00:35:13;98135.25;;;11.33;80.55
13765;BME280;6953;48.810;9.204;2023-04-25T00:37:39;98154.59;;;11.32;80.36
13765;BME280;6953;48.810;9.204;2023-04-25T00:40:05;98182.91;;;11.41;80.61
13765;BME280;6953;48.810;9.204;2023-04-25T00:42:31;98138.25;;;11.41;80.52
13765;BME280;6953;48.810;9.204;2023-04-25T00:44:58;98057.00;;;10.99;80.71
13765;BME280;6953;48.810;9.204;2023-04-25T00:47:24;98125.94;;;11.41;80.49
13765;BME280;6953;48.810;9.204;2023-04-25T00:49:50;97855.31;;;9.75;80.48
13765;BME280;6953;48.810;9.204;2023-04-25T00:52:16;98091.63;;;11.18;80.71
13765;BME280;6953;48.810;9.204;2023-04-25T00:54:41;98069.81;;;11.04;80.79
13765;BME280;6953;48.810;9.204;2023-04-25T00:57:06;97838.28;;;9.68;80.97
13765;BME280;6953;48.810;9.204;2023-04-25T00:59:32;98075.53;;;11.10;81.26
13765;BME280;6953;48.810;9.204;2023-04-25T01:01:58;98117.00;;;11.32;81.13
13765;BME280;6953;48.810;9.204;2023-04-25T01:04:24;97893.47;;;9.65;81.23
13765;BME280;6953;48.810;9.204;2023-04-25T01:06:51;97846.78;;;9.72;81.73
13765;BME280;6953;48.810;9.204;2023-04-25T01:09:16;98101.81;;;11.23;81.49
13765;BME280;6953;48.810;9.204;2023-04-25T01:11:42;98091.63;;;11.18;81.56
13765;BME280;6953;48.810;9.204;2023-04-25T01:14:08;97833.06;;;9.68;81.27
13765;BME280;6953;48.810;9.204;2023-04-25T01:16:33;97903.63;;;10.12;81.87
13765;BME280;6953;48.810;9.204;2023-04-25T01:18:59;97910.28;;;10.17;81.38
13765;BME280;6953;48.810;9.204;2023-04-25T01:21:24;98109.25;;;11.42;81.21
13765;BME280;6953;48.810;9.204;2023-04-25T01:23:52;98083.16;;;11.27;81.11
13765;BME280;6953;48.810;9.204;2023-04-25T01:26:19;98097.16;;;11.40;80.52
13765;BME280;6953;48.810;9.204;2023-04-25T01:28:46;98045.41;;;11.16;80.65
13765;BME280;6953;48.810;9.204;2023-04-25T01:31:12;98086.22;;;11.34;81.06
13765;BME280;6953;48.810;9.204;2023-04-25T01:33:38;98058.69;;;11.00;81.58
13765;BME280;6953;48.810;9.204;2023-04-25T01:36:03;98029.03;;;10.86;81.83
13765;BME280;6953;48.810;9.204;2023-04-25T01:38:29;98049.63;;;10.92;81.85
13765;BME280;6953;48.810;9.204;2023-04-25T01:40:55;98100.81;;;11.25;82.21
13765;BME280;6953;48.810;9.204;2023-04-25T01:43:21;98087.63;;;11.13;82.18
13765;BME280;6953;48.810;9.204;2023-04-25T01:45:48;98134.50;;;11.19;82.21
13765;BME280;6953;48.810;9.204;2023-04-25T01:48:14;97857.63;;;9.80;82.20
13765;BME280;6953;48.810;9.204;2023-04-25T01:50:40;98026.06;;;10.78;82.41
13765;BME280;6953;48.810;9.204;2023-04-25T01:53:06;98080.78;;;11.10;82.49
13765;BME280;6953;48.810;9.204;2023-04-25T01:55:31;97886.41;;;9.94;82.58
13765;BME280;6953;48.810;9.204;2023-04-25T01:57:57;98105.19;;;11.25;82.46
13765;BME280;6953;48.810;9.204;2023-04-25T02:00:23;98018.38;;;10.75;82.58
13765;BME280;6953;48.810;9.204;2023-04-25T02:02:49;98128.06;;;11.23;82.65
13765;BME280;6953;48.810;9.204;2023-04-25T02:05:16;98130.69;;;11.23;82.22
13765;BME280;6953;48.810;9.204;2023-04-25T02:07:41;98037.56;;;10.89;82.40
13765;BME280;6953;48.810;9.204;2023-04-25T02:10:07;98088.59;;;11.24;82.17
13765;BME280;6953;48.810;9.204;2023-04-25T02:12:32;98127.84;;;11.39;82.08
13765;BME280;6953;48.810;9.204;2023-04-25T02:14:58;98111.69;;;11.45;82.24
13765;BME280;6953;48.810;9.204;2023-04-25T02:17:23;97854.25;;;10.06;82.02
13765;BME280;6953;48.810;9.204;2023-04-25T02:19:48;98132.97;;;11.55;81.47
13765;BME280;6953;48.810;9.204;2023-04-25T02:22:14;98098.03;;;11.53;81.30
13765;BME280;6953;48.810;9.204;2023-04-25T02:24:39;98052.16;;;11.20;81.90
13765;BME280;6953;48.810;9.204;2023-04-25T02:27:05;98115.94;;;11.34;82.33
13765;BME280;6953;48.810;9.204;2023-04-25T02:29:31;98090.59;;;11.21;82.87
13765;BME280;6953;48.810;9.204;2023-04-25T02:31:56;98089.81;;;11.06;83.33
13765;BME280;6953;48.810;9.204;2023-04-25T02:34:21;98015.31;;;10.54;83.88
13765;BME280;6953;48.810;9.204;2023-04-25T02:36:48;98076.66;;;10.80;84.36
13765;BME280;6953;48.810;9.204;2023-04-25T02:39:14;98071.78;;;10.60;84.91
13765;BME280;6953;48.810;9.204;2023-04-25T02:41:40;97725.19;;;8.53;85.09
13765;BME280;6953;48.810;9.204;2023-04-25T02:44:05;98092.09;;;10.70;85.57
13765;BME280;6953;48.810;9.204;2023-04-25T02:46:31;98108.34;;;10.77;85.56
13765;BME280;6953;48.810;9.204;2023-04-25T02:48:56;98071.41;;;10.80;85.12
13765;BME280;6953;48.810;9.204;2023-04-25T02:51:21;98054.63;;;10.82;85.09
13765;BME280;6953;48.810;9.204;2023-04-25T02:53:47;98075.56;;;10.96;84.84
13765;BME280;6953;48.810;9.204;2023-04-25T02:56:12;97805.13;;;9.41;84.69
13765;BME280;6953;48.810;9.204;2023-04-25T02:58:37;98075.81;;;11.06;84.67
13765;BME280;6953;48.810;9.204;2023-04-25T03:01:03;98042.75;;;10.77;85.03
13765;BME280;6953;48.810;9.204;2023-04-25T03:03:28;98077.38;;;10.96;85.29
13765;BME280;6953;48.810;9.204;2023-04-25T03:05:53;98078.84;;;11.00;85.33
13765;BME280;6953;48.810;9.204;2023-04-25T03:08:19;98075.00;;;11.05;84.90
13765;BME280;6953;48.810;9.204;2023-04-25T03:10:45;98090.19;;;11.00;84.67
13765;BME280;6953;48.810;9.204;2023-04-25T03:13:10;98077.34;;;11.22;84.05
13765;BME280;6953;48.810;9.204;2023-04-25T03:15:37;98104.16;;;11.27;83.78
13765;BME280;6953;48.810;9.204;2023-04-25T03:18:03;97805.19;;;9.67;83.14
13765;BME280;6953;48.810;9.204;2023-04-25T03:20:28;98078.66;;;11.29;83.54
13765;BME280;6953;48.810;9.204;2023-04-25T03:22:54;98071.41;;;11.33;83.64
13765;BME280;6953;48.810;9.204;2023-04-25T03:25:20;98057.34;;;11.34;83.37
13765;BME280;6953;48.810;9.204;2023-04-25T03:27:46;97801.31;;;9.73;83.05
13765;BME280;6953;48.810;9.204;2023-04-25T03:30:11;97996.69;;;10.59;84.45
13765;BME280;6953;48.810;9.204;2023-04-25T03:32:36;98072.91;;;10.70;85.94
13765;BME280;6953;48.810;9.204;2023-04-25T03:35:02;97978.50;;;9.88;86.77
13765;BME280;6953;48.810;9.204;2023-04-25T03:37:27;97981.97;;;9.74;88.20
13765;BME280;6953;48.810;9.204;2023-04-25T03:39:53;98076.16;;;10.19;89.03
13765;BME280;6953;48.810;9.204;2023-04-25T03:42:18;98080.38;;;10.22;89.51
13765;BME280;6953;48.810;9.204;2023-04-25T03:44:43;97987.22;;;9.74;89.80
13765;BME280;6953;48.810;9.204;2023-04-25T03:47:09;98046.00;;;10.12;89.99
13765;BME280;6953;48.810;9.204;2023-04-25T03:49:34;98003.56;;;9.92;89.83
13765;BME280;6953;48.810;9.204;2023-04-25T03:52:00;98078.59;;;10.36;90.31
13765;BME280;6953;48.810;9.204;2023-04-25T03:54:26;98029.63;;;10.09;90.84
13765;BME280;6953;48.810;9.204;2023-04-25T03:56:51;97976.91;;;9.71;90.51
13765;BME280;6953;48.810;9.204;2023-04-25T03:59:16;98068.38;;;10.32;91.01
13765;BME280;6953;48.810;9.204;2023-04-25T04:01:42;98103.75;;;10.38;91.25
13765;BME280;6953;48.810;9.204;2023-04-25T04:04:08;98066.88;;;10.41;90.41
13765;BME280;6953;48.810;9.204;2023-04-25T04:06:33;98054.50;;;10.30;90.64
13765;BME280;6953;48.810;9.204;2023-04-25T04:08:59;98096.44;;;10.30;91.32
13765;BME280;6953;48.810;9.204;2023-04-25T04:11:24;98039.72;;;10.15;90.88
13765;BME280;6953;48.810;9.204;2023-04-25T04:13:50;98042.09;;;10.19;90.50
13765;BME280;6953;48.810;9.204;2023-04-25T04:16:15;97790.81;;;8.77;89.92
13765;BME280;6953;48.810;9.204;2023-04-25T04:18:41;98065.75;;;10.45;89.80
13765;BME280;6953;48.810;9.204;2023-04-25T04:21:06;98056.47;;;10.40;89.79
13765;BME280;6953;48.810;9.204;2023-04-25T04:23:31;98072.88;;;10.43;89.76
13765;BME280;6953;48.810;9.204;2023-04-25T04:25:57;97808.88;;;8.81;89.37
13765;BME280;6953;48.810;9.204;2023-04-25T04:28:22;98073.16;;;10.39;89.69
13765;BME280;6953;48.810;9.204;2023-04-25T04:30:48;97898.53;;;9.40;89.40
13765;BME280;6953;48.810;9.204;2023-04-25T04:33:16;98079.06;;;10.42;89.31
13765;BME280;6953;48.810;9.204;2023-04-25T04:35:44;98054.91;;;10.24;89.76
13765;BME280;6953;48.810;9.204;2023-04-25T04:38:09;98082.22;;;10.33;89.79
13765;BME280;6953;48.810;9.204;2023-04-25T04:40:36;98060.50;;;10.18;89.65
13765;BME280;6953;48.810;9.204;2023-04-25T04:43:01;98096.19;;;10.48;89.42
13765;BME280;6953;48.810;9.204;2023-04-25T04:45:27;98085.22;;;10.69;88.44
13765;BME280;6953;48.810;9.204;2023-04-25T04:47:52;98089.19;;;10.89;87.42
13765;BME280;6953;48.810;9.204;2023-04-25T04:50:20;98091.00;;;11.01;86.56
13765;BME280;6953;48.810;9.204;2023-04-25T04:52:45;98092.13;;;11.11;86.08
13765;BME280;6953;48.810;9.204;2023-04-25T04:55:11;98124.06;;;11.17;85.98
13765;BME280;6953;48.810;9.204;2023-04-25T04:57:36;98099.13;;;11.24;85.45
13765;BME280;6953;48.810;9.204;2023-04-25T05:00:02;98109.22;;;11.30;85.28
13765;BME280;6953;48.810;9.204;2023-04-25T05:02:30;98109.88;;;11.34;85.05
13765;BME280;6953;48.810;9.204;2023-04-25T05:04:55;98016.84;;;10.85;84.88
13765;BME280;6953;48.810;9.204;2023-04-25T05:07:21;97850.03;;;9.89;84.33
13765;BME280;6953;48.810;9.204;2023-04-25T05:09:46;98096.63;;;11.35;84.40
13765;BME280;6953;48.810;9.204;2023-04-25T05:12:11;98091.25;;;11.24;84.22
13765;BME280;6953;48.810;9.204;2023-04-25T05:14:37;98112.88;;;11.54;84.07
13765;BME280;6953;48.810;9.204;2023-04-25T05:17:03;97842.72;;;10.08;83.47
13765;BME280;6953;48.810;9.204;2023-04-25T05:19:32;98108.09;;;11.73;83.37
13765;BME280;6953;48.810;9.204;2023-04-25T05:21:57;98108.56;;;11.79;83.02
13765;BME280;6953;48.810;9.204;2023-04-25T05:24:22;97817.31;;;10.23;82.25
13765;BME280;6953;48.810;9.204;2023-04-25T05:26:48;98115.50;;;12.05;81.76
13765;BME280;6953;48.810;9.204;2023-04-25T05:29:13;98101.56;;;12.17;81.50
13765;BME280;6953;48.810;9.204;2023-04-25T05:31:38;98053.81;;;11.98;80.72
13765;BME280;6953;48.810;9.204;2023-04-25T05:34:04;98124.03;;;12.34;80.30
13765;BME280;6953;48.810;9.204;2023-04-25T05:36:29;98123.19;;;12.08;79.80
13765;BME280;6953;48.810;9.204;2023-04-25T05:38:57;97858.59;;;10.19;81.68
13765;BME280;6953;48.810;9.204;2023-04-25T05:41:23;98118.56;;;11.34;84.93
13765;BME280;6953;48.810;9.204;2023-04-25T05:43:48;98111.66;;;10.93;86.39
13765;BME280;6953;48.810;9.204;2023-04-25T05:46:14;97983.59;;;10.05;87.33
13765;BME280;6953;48.810;9.204;2023-04-25T05:48:42;98119.31;;;10.69;88.44
13765;BME280;6953;48.810;9.204;2023-04-25T05:51:07;97846.81;;;9.16;88.98
13765;BME280;6953;48.810;9.204;2023-04-25T05:53:33;97819.63;;;9.05;89.32
13765;BME280;6953;48.810;9.204;2023-04-25T05:55:58;98120.41;;;10.51;89.70
13765;BME280;6953;48.810;9.204;2023-04-25T05:58:23;98121.38;;;10.64;90.00
13765;BME280;6953;48.810;9.204;2023-04-25T06:00:49;98109.19;;;10.63;90.44
13765;BME280;6953;48.810;9.204;2023-04-25T06:03:14;98113.72;;;10.47;90.68
13765;BME280;6953;48.810;9.204;2023-04-25T06:05:43;98166.44;;;10.57;91.24
13765;BME280;6953;48.810;9.204;2023-04-25T06:08:09;98117.53;;;10.56;91.49
13765;BME280;6953;48.810;9.204;2023-04-25T06:10:35;97923.41;;;9.33;91.86
13765;BME280;6953;48.810;9.204;2023-04-25T06:13:00;98122.13;;;10.66;91.99
13765;BME280;6953;48.810;9.204;2023-04-25T06:15:26;98127.56;;;10.63;91.19
13765;BME280;6953;48.810;9.204;2023-04-25T06:17:51;98054.22;;;10.20;90.88
13765;BME280;6953;48.810;9.204;2023-04-25T06:20:16;98151.06;;;10.65;91.30
13765;BME280;6953;48.810;9.204;2023-04-25T06:22:42;98120.22;;;10.82;90.62
13765;BME280;6953;48.810;9.204;2023-04-25T06:25:07;98119.53;;;10.93;89.69
13765;BME280;6953;48.810;9.204;2023-04-25T06:27:33;98098.34;;;10.96;89.13
13765;BME280;6953;48.810;9.204;2023-04-25T06:29:59;98113.94;;;11.11;88.35
13765;BME280;6953;48.810;9.204;2023-04-25T06:32:25;98072.19;;;10.94;87.92
13765;BME280;6953;48.810;9.204;2023-04-25T06:34:52;98117.09;;;11.30;87.74
13765;BME280;6953;48.810;9.204;2023-04-25T06:37:18;98084.84;;;11.28;87.37
13765;BME280;6953;48.810;9.204;2023-04-25T06:39:43;98104.34;;;11.50;85.97
13765;BME280;6953;48.810;9.204;2023-04-25T06:42:08;98097.66;;;11.59;85.43
13765;BME280;6953;48.810;9.204;2023-04-25T06:44:34;98088.69;;;11.49;85.37
13765;BME280;6953;48.810;9.204;2023-04-25T06:46:59;98084.06;;;11.79;84.86
13765;BME280;6953;48.810;9.204;2023-04-25T06:49:24;98102.69;;;12.13;84.02
13765;BME280;6953;48.810;9.204;2023-04-25T06:51:50;98117.50;;;12.64;82.16
13765;BME280;6953;48.810;9.204;2023-04-25T06:54:15;98100.38;;;13.07;79.91
13765;BME280;6953;48.810;9.204;2023-04-25T06:56:41;98108.19;;;13.32;76.30
13765;BME280;6953;48.810;9.204;2023-04-25T06:59:06;98009.28;;;13.04;75.50
13765;BME280;6953;48.810;9.204;2023-04-25T07:01:31;98124.78;;;13.68;74.33
13765;BME280;6953;48.810;9.204;2023-04-25T07:03:57;98114.75;;;13.73;74.72
13765;BME280;6953;48.810;9.204;2023-04-25T07:06:22;97917.22;;;12.56;73.47
13765;BME280;6953;48.810;9.204;2023-04-25T07:08:47;98102.81;;;13.56;74.14
13765;BME280;6953;48.810;9.204;2023-04-25T07:11:13;98049.56;;;13.17;74.07
13765;BME280;6953;48.810;9.204;2023-04-25T07:13:38;98116.72;;;13.58;74.31
13765;BME280;6953;48.810;9.204;2023-04-25T07:16:04;98120.41;;;13.56;74.43
13765;BME280;6953;48.810;9.204;2023-04-25T07:18:30;98143.94;;;13.23;75.40
13765;BME280;6953;48.810;9.204;2023-04-25T07:20:55;98109.91;;;12.84;77.47
13765;BME280;6953;48.810;9.204;2023-04-25T07:23:20;97918.78;;;11.37;78.63
13765;BME280;6953;48.810;9.204;2023-04-25T07:25:46;98134.88;;;12.42;80.55
13765;BME280;6953;48.810;9.204;2023-04-25T07:28:12;98126.47;;;12.37;81.27
13765;BME280;6953;48.810;9.204;2023-04-25T07:30:37;98113.75;;;12.18;81.51
13765;BME280;6953;48.810;9.204;2023-04-25T07:33:02;98132.38;;;12.52;81.02
13765;BME280;6953;48.810;9.204;2023-04-25T07:35:28;98052.94;;;12.23;80.66
13765;BME280;6953;48.810;9.204;2023-04-25T07:37:53;98132.13;;;12.80;79.88
13765;BME280;6953;48.810;9.204;2023-04-25T07:40:19;98132.63;;;12.85;79.46
13765;BME280;6953;48.810;9.204;2023-04-25T07:42:44;97886.25;;;11.39;79.27
13765;BME280;6953;48.810;9.204;2023-04-25T07:45:10;98141.50;;;12.97;78.93
13765;BME280;6953;48.810;9.204;2023-04-25T07:47:35;98146.88;;;12.83;78.89
13765;BME280;6953;48.810;9.204;2023-04-25T07:50:01;98150.56;;;12.55;80.37
13765;BME280;6953;48.810;9.204;2023-04-25T07:52:27;97887.25;;;10.61;81.81
13765;BME280;6953;48.810;9.204;2023-04-25T07:54:52;97926.81;;;10.58;83.55
13765;BME280;6953;48.810;9.204;2023-04-25T07:57:18;98155.13;;;11.77;84.90
13765;BME280;6953;48.810;9.204;2023-04-25T07:59:44;98182.50;;;11.61;86.14
13765;BME280;6953;48.810;9.204;2023-04-25T08:02:10;98159.16;;;11.42;87.32
13765;BME280;6953;48.810;9.204;2023-04-25T08:04:35;98156.56;;;11.29;88.52
13765;BME280;6953;48.810;9.204;2023-04-25T08:07:01;98167.69;;;11.20;89.08
13765;BME280;6953;48.810;9.204;2023-04-25T08:09:26;98151.88;;;11.34;89.45
13765;BME280;6953;48.810;9.204;2023-04-25T08:11:51;97974.47;;;10.24;89.81
13765;BME280;6953;48.810;9.204;2023-04-25T08:14:17;98063.81;;;10.75;89.83
13765;BME280;6953;48.810;9.204;2023-04-25T08:16:42;98174.13;;;11.14;90.78
13765;BME280;6953;48.810;9.204;2023-04-25T08:19:07;98041.38;;;10.57;91.26
13765;BME280;6953;48.810;9.204;2023-04-25T08:21:33;98175.56;;;11.46;91.31
13765;BME280;6953;48.810;9.204;2023-04-25T08:23:58;98225.03;;;11.53;91.53
13765;BME280;6953;48.810;9.204;2023-04-25T08:26:24;97941.81;;;10.16;91.24
13765;BME280;6953;48.810;9.204;2023-04-25T08:28:50;98152.31;;;11.14;92.32
13765;BME280;6953;48.810;9.204;2023-04-25T08:31:16;98194.72;;;11.34;92.50
13765;BME280;6953;48.810;9.204;2023-04-25T08:33:42;98092.25;;;10.55;93.33
13765;BME280;6953;48.810;9.204;2023-04-25T08:36:07;97975.31;;;9.69;94.04
13765;BME280;6953;48.810;9.204;2023-04-25T08:38:33;97928.25;;;9.26;94.92
13765;BME280;6953;48.810;9.204;2023-04-25T08:40:59;98221.44;;;10.86;95.79
13765;BME280;6953;48.810;9.204;2023-04-25T08:43:26;98212.25;;;10.79;96.24
13765;BME280;6953;48.810;9.204;2023-04-25T08:45:54;98206.44;;;10.74;96.96
13765;BME280;6953;48.810;9.204;2023-04-25T08:48:24;97945.97;;;9.21;96.85
13765;BME280;6953;48.810;9.204;2023-04-25T08:50:53;98253.88;;;10.85;97.60
13765;BME280;6953;48.810;9.204;2023-04-25T08:53:25;98235.84;;;10.79;97.94
13765;BME280;6953;48.810;9.204;2023-04-25T08:55:53;98167.16;;;10.45;98.13
13765;BME280;6953;48.810;9.204;2023-04-25T08:58:19;98234.75;;;10.83;98.17
13765;BME280;6953;48.810;9.204;2023-04-25T09:00:49;98242.13;;;11.05;98.65
13765;BME280;6953;48.810;9.204;2023-04-25T09:03:15;98231.53;;;11.20;98.29
13765;BME280;6953;48.810;9.204;2023-04-25T09:05:41;97900.50;;;9.37;97.87
13765;BME280;6953;48.810;9.204;2023-04-25T09:08:07;97977.47;;;9.62;97.78
13765;BME280;6953;48.810;9.204;2023-04-25T09:10:33;97989.63;;;9.63;98.32
13765;BME280;6953;48.810;9.204;2023-04-25T09:13:05;98253.09;;;11.11;98.99
13765;BME280;6953;48.810;9.204;2023-04-25T09:15:32;97963.31;;;9.37;98.72
13765;BME280;6953;48.810;9.204;2023-04-25T09:17:59;97974.53;;;9.39;98.67
13765;BME280;6953;48.810;9.204;2023-04-25T09:20:24;98266.50;;;11.07;98.47
13765;BME280;6953;48.810;9.204;2023-04-25T09:23:02;98265.75;;;11.05;98.38
13765;BME280;6953;48.810;9.204;2023-04-25T09:25:34;98274.56;;;11.04;97.98
13765;BME280;6953;48.810;9.204;2023-04-25T09:28:03;98277.19;;;11.04;98.59
13765;BME280;6953;48.810;9.204;2023-04-25T09:30:31;98285.06;;;11.04;98.66
13765;BME280;6953;48.810;9.204;2023-04-25T09:33:04;98204.81;;;10.44;98.71
13765;BME280;6953;48.810;9.204;2023-04-25T09:35:35;98088.78;;;9.69;98.69
13765;BME280;6953;48.810;9.204;2023-04-25T09:38:01;98034.03;;;9.22;99.05
13765;BME280;6953;48.810;9.204;2023-04-25T09:40:26;98308.56;;;10.77;99.79
13765;BME280;6953;48.810;9.204;2023-04-25T09:42:51;98303.88;;;10.68;100.00
13765;BME280;6953;48.810;9.204;2023-04-25T09:45:17;98307.69;;;10.63;100.00
13765;BME280;6953;48.810;9.204;2023-04-25T09:47:42;98110.66;;;9.39;100.00
13765;BME280;6953;48.810;9.204;2023-04-25T09:50:16;98305.06;;;10.49;100.00
13765;BME280;6953;48.810;9.204;2023-04-25T09:52:42;98108.16;;;9.22;100.00
13765;BME280;6953;48.810;9.204;2023-04-25T09:55:07;98350.75;;;10.30;100.00
13765;BME280;6953;48.810;9.204;2023-04-25T09:57:33;98358.41;;;10.03;99.81
13765;BME280;6953;48.810;9.204;2023-04-25T10:00:00;98325.59;;;9.81;98.14
13765;BME280;6953;48.810;9.204;2023-04-25T10:02:26;98328.22;;;9.81;99.04
13765;BME280;6953;48.810;9.204;2023-04-25T10:04:53;98270.44;;;9.22;99.35
13765;BME280;6953;48.810;9.204;2023-04-25T10:07:24;98258.69;;;9.44;99.63
13765;BME280;6953;48.810;9.204;2023-04-25T10:09:55;98363.88;;;9.99;99.77
13765;BME280;6953;48.810;9.204;2023-04-25T10:12:24;98343.63;;;10.02;99.55
13765;BME280;6953;48.810;9.204;2023-04-25T10:14:50;98115.94;;;8.62;99.65
13765;BME280;6953;48.810;9.204;2023-04-25T10:17:16;98350.94;;;9.96;100.00
13765;BME280;6953;48.810;9.204;2023-04-25T10:19:43;98278.09;;;9.40;100.00
13765;BME280;6953;48.810;9.204;2023-04-25T10:22:23;98380.69;;;9.79;100.00
13765;BME280;6953;48.810;9.204;2023-04-25T10:24:51;98393.88;;;9.78;100.00
13765;BME280;6953;48.810;9.204;2023-04-25T10:27:17;97949.41;;;7.37;100.00
13765;BME280;6953;48.810;9.204;2023-04-25T10:29:43;98069.66;;;7.99;100.00
13765;BME280;6953;48.810;9.204;2023-04-25T10:32:09;98376.63;;;9.74;100.00
13765;BME280;6953;48.810;9.204;2023-04-25T10:34:43;98156.44;;;8.38;100.00
13765;BME280;6953;48.810;9.204;2023-04-25T10:37:11;98383.16;;;9.82;100.00
13765;BME280;6953;48.810;9.204;2023-04-25T10:39:41;98365.06;;;9.78;100.00
13765;BME280;6953;48.810;9.204;2023-04-25T10:42:07;98383.03;;;10.01;100.00
13765;BME280;6953;48.810;9.204;2023-04-25T10:44:37;98425.13;;;10.13;100.00
13765;BME280;6953;48.810;9.204;2023-04-25T10:47:06;98393.56;;;10.15;100.00
13765;BME280;6953;48.810;9.204;2023-04-25T10:52:24;98298.91;;;9.59;100.00
13765;BME280;6953;48.810;9.204;2023-04-25T10:54:58;98401.72;;;10.26;100.00
13765;BME280;6953;48.810;9.204;2023-04-25T10:57:40;98187.50;;;8.92;100.00
13765;BME280;6953;48.810;9.204;2023-04-25T11:02:41;98401.44;;;9.99;100.00
13765;BME280;6953;48.810;9.204;2023-04-25T11:05:08;98420.94;;;9.94;100.00
13765;BME280;6953;48.810;9.204;2023-04-25T11:07:49;98461.94;;;9.95;100.00
13765;BME280;6953;48.810;9.204;2023-04-25T11:10:15;98409.50;;;9.79;100.00
13765;BME280;6953;48.810;9.204;2023-04-25T11:12:41;98376.13;;;9.67;100.00
13765;BME280;6953;48.810;9.204;2023-04-25T11:15:07;98340.81;;;9.74;100.00
13765;BME280;6953;48.810;9.204;2023-04-25T11:17:33;98424.28;;;10.43;100.00
13765;BME280;6953;48.810;9.204;2023-04-25T11:19:59;98408.19;;;10.49;99.71
13765;BME280;6953;48.810;9.204;2023-04-25T11:22:26;98443.19;;;10.64;98.19
13765;BME280;6953;48.810;9.204;2023-04-25T11:24:52;98149.94;;;9.08;97.74
13765;BME280;6953;48.810;9.204;2023-04-25T11:27:17;98358.63;;;10.30;96.87
13765;BME280;6953;48.810;9.204;2023-04-25T11:29:43;98332.81;;;10.37;97.31
13765;BME280;6953;48.810;9.204;2023-04-25T11:32:08;98426.81;;;11.04;97.01
13765;BME280;6953;48.810;9.204;2023-04-25T11:34:34;98422.06;;;11.10;96.77
13765;BME280;6953;48.810;9.204;2023-04-25T11:37:00;98346.94;;;10.80;96.48
13765;BME280;6953;48.810;9.204;2023-04-25T11:39:27;98413.75;;;11.45;95.76
13765;BME280;6953;48.810;9.204;2023-04-25T11:41:53;98418.53;;;11.53;95.45
13765;BME280;6953;48.810;9.204;2023-04-25T11:44:20;98283.00;;;10.95;94.23
13765;BME280;6953;48.810;9.204;2023-04-25T11:46:46;98427.88;;;11.72;92.84
13765;BME280;6953;48.810;9.204;2023-04-25T11:49:12;98377.16;;;11.29;93.11
13765;BME280;6953;48.810;9.204;2023-04-25T11:51:42;98486.16;;;11.65;93.16
13765;BME280;6953;48.810;9.204;2023-04-25T11:54:09;98445.97;;;11.49;91.28
13765;BME280;6953;48.810;9.204;2023-04-25T11:56:34;98458.50;;;11.44;92.64
13765;BME280;6953;48.810;9.204;2023-04-25T11:59:02;98177.44;;;10.20;92.63
13765;BME280;6953;48.810;9.204;2023-04-25T12:01:29;98395.41;;;11.59;92.14
13765;BME280;6953;48.810;9.204;2023-04-25T12:03:58;98474.22;;;12.29;92.48
13765;BME280;6953;48.810;9.204;2023-04-25T12:06:27;98384.88;;;12.28;91.54
13765;BME280;6953;48.810;9.204;2023-04-25T12:09:04;98372.63;;;12.41;90.34
13765;BME280;6953;48.810;9.204;2023-04-25T12:11:32;98445.00;;;12.86;88.74
13765;BME280;6953;48.810;9.204;2023-04-25T12:14:04;98190.22;;;10.96;87.22
13765;BME280;6953;48.810;9.204;2023-04-25T12:16:45;98456.88;;;12.13;89.06
13765;BME280;6953;48.810;9.204;2023-04-25T12:19:14;98451.97;;;11.93;90.68
13765;BME280;6953;48.810;9.204;2023-04-25T12:21:40;98440.25;;;11.70;91.17
13765;BME280;6953;48.810;9.204;2023-04-25T12:24:21;98495.44;;;11.56;90.95
13765;BME280;6953;48.810;9.204;2023-04-25T12:27:09;98172.72;;;9.52;92.08
13765;BME280;6953;48.810;9.204;2023-04-25T12:29:34;98457.31;;;11.06;93.56
13765;BME280;6953;48.810;9.204;2023-04-25T12:32:00;98460.31;;;10.85;94.76
13765;BME280;6953;48.810;9.204;2023-04-25T12:34:27;98316.97;;;9.94;95.91
13765;BME280;6953;48.810;9.204;2023-04-25T12:36:53;98460.91;;;10.90;95.92
13765;BME280;6953;48.810;9.204;2023-04-25T12:39:20;98465.31;;;11.19;95.89
13765;BME280;6953;48.810;9.204;2023-04-25T12:41:47;98185.06;;;9.80;95.18
13765;BME280;6953;48.810;9.204;2023-04-25T12:44:12;98470.38;;;11.93;94.16
13765;BME280;6953;48.810;9.204;2023-04-25T12:46:41;98495.03;;;12.60;93.24
13765;BME280;6953;48.810;9.204;2023-04-25T12:49:07;98252.59;;;12.13;89.41
13765;BME280;6953;48.810;9.204;2023-04-25T12:51:33;98213.63;;;13.07;87.05
13765;BME280;6953;48.810;9.204;2023-04-25T12:54:00;98457.50;;;15.51;83.62
13765;BME280;6953;48.810;9.204;2023-04-25T12:56:29;98417.63;;;15.19;80.08
13765;BME280;6953;48.810;9.204;2023-04-25T12:58:54;98333.19;;;14.49;81.15
13765;BME280;6953;48.810;9.204;2023-04-25T13:01:21;98463.72;;;15.28;79.82
13765;BME280;6953;48.810;9.204;2023-04-25T13:03:46;98470.72;;;16.51;74.48
13765;BME280;6953;48.810;9.204;2023-04-25T13:06:13;98200.28;;;15.60;67.18
13765;BME280;6953;48.810;9.204;2023-04-25T13:08:39;98180.88;;;15.81;67.07
13765;BME280;6953;48.810;9.204;2023-04-25T13:11:05;98225.09;;;16.32;65.41
13765;BME280;6953;48.810;9.204;2023-04-25T13:13:31;98455.78;;;17.75;64.01